createdAt,value
2022-10-04T00:00:01.593Z,12.50
2022-10-04T00:01:03.812Z,12.50
2022-10-04T00:02:01.689Z,12.50
2022-10-04T00:03:01.616Z,12.50
2022-10-04T00:04:01.533Z,12.50
2022-10-04T00:05:01.529Z,12.50
2022-10-04T00:06:01.517Z,12.50
2022-10-04T00:08:21.332Z,13.55
2022-10-04T00:09:21.167Z,13.13
2022-10-04T00:10:21.158Z,12.84
2022-10-04T00:11:21.311Z,12.68
2022-10-04T00:12:21.154Z,12.59
2022-10-04T00:13:28.642Z,12.53
2022-10-04T00:14:28.634Z,12.49
2022-10-04T00:15:28.621Z,12.46
2022-10-04T00:16:29.882Z,12.44
2022-10-04T00:17:28.608Z,12.42
2022-10-04T00:18:28.693Z,12.40
2022-10-04T00:19:28.597Z,12.37
2022-10-04T00:22:50.354Z,13.25
2022-10-04T00:23:57.422Z,12.83
2022-10-04T00:24:57.420Z,12.56
2022-10-04T00:25:57.408Z,12.40
2022-10-04T00:26:57.404Z,12.32
2022-10-04T00:28:00.663Z,12.29
2022-10-04T00:28:57.436Z,12.27
2022-10-04T00:29:57.364Z,12.26
2022-10-04T00:30:57.396Z,12.24
2022-10-04T00:31:57.344Z,12.21
2022-10-04T00:32:57.344Z,12.19
2022-10-04T00:33:59.552Z,12.18
2022-10-04T00:34:57.351Z,12.18
2022-10-04T00:35:49.787Z,12.18
2022-10-04T00:36:49.782Z,12.19
2022-10-04T00:37:49.751Z,12.20
2022-10-04T00:38:49.753Z,12.22
2022-10-04T00:39:50.473Z,12.23
2022-10-04T00:40:49.724Z,12.24
2022-10-04T00:41:49.720Z,12.25
2022-10-04T00:42:49.725Z,12.24
2022-10-04T00:43:49.711Z,12.21
2022-10-04T00:44:49.688Z,12.16
2022-10-04T00:45:50.654Z,12.12
2022-10-04T00:46:49.660Z,12.09
2022-10-04T00:47:49.673Z,12.08
2022-10-04T00:48:49.661Z,12.08
2022-10-04T00:49:49.640Z,12.08
2022-10-04T00:50:49.640Z,12.08
2022-10-04T00:51:49.979Z,12.07
2022-10-04T00:52:49.599Z,12.06
2022-10-04T00:53:49.590Z,12.03
2022-10-04T00:54:49.570Z,12.00
2022-10-04T00:55:49.559Z,11.98
2022-10-04T00:56:49.549Z,11.97
2022-10-04T00:57:49.750Z,11.95
2022-10-04T00:58:49.547Z,11.94
2022-10-04T00:59:49.514Z,11.93
2022-10-04T01:00:49.580Z,11.93
2022-10-04T01:01:49.525Z,11.92
2022-10-04T01:02:49.510Z,11.93
2022-10-04T01:03:49.649Z,11.94
2022-10-04T01:04:49.469Z,11.95
2022-10-04T01:05:49.457Z,11.97
2022-10-04T01:06:49.446Z,11.98
2022-10-04T01:07:49.430Z,12.00
2022-10-04T01:08:49.416Z,12.01
2022-10-04T01:09:49.643Z,12.03
2022-10-04T01:10:49.428Z,12.04
2022-10-04T01:11:49.410Z,12.06
2022-10-04T01:12:49.480Z,12.07
2022-10-04T01:13:49.360Z,12.08
2022-10-04T01:14:49.350Z,12.08
2022-10-04T01:15:49.522Z,12.07
2022-10-04T01:16:49.331Z,12.05
2022-10-04T01:17:49.312Z,12.03
2022-10-04T01:18:49.325Z,12.01
2022-10-04T01:19:49.294Z,11.99
2022-10-04T01:20:49.292Z,11.98
2022-10-04T01:21:49.441Z,11.96
2022-10-04T01:22:49.270Z,11.95
2022-10-04T01:23:49.323Z,11.95
2022-10-04T01:24:49.252Z,11.95
2022-10-04T01:25:49.243Z,11.95
2022-10-04T01:26:49.240Z,11.95
2022-10-04T01:27:58.991Z,11.94
2022-10-04T01:28:49.312Z,11.93
2022-10-04T01:29:51.665Z,11.90
2022-10-04T01:30:56.760Z,11.88
2022-10-04T01:31:49.192Z,11.85
2022-10-04T01:32:49.273Z,11.83
2022-10-04T01:33:49.311Z,11.80
2022-10-04T01:34:49.139Z,11.78
2022-10-04T01:35:57.851Z,11.76
2022-10-04T01:36:56.637Z,11.75
2022-10-04T01:37:49.121Z,11.74
2022-10-04T01:38:49.094Z,11.74
2022-10-04T01:39:49.085Z,11.75
2022-10-04T01:40:49.075Z,11.76
2022-10-04T01:41:49.265Z,11.78
2022-10-04T01:42:49.049Z,11.80
2022-10-04T01:43:49.069Z,11.83
2022-10-04T01:44:49.046Z,11.85
2022-10-04T01:45:49.116Z,11.87
2022-10-04T01:46:49.109Z,11.89
2022-10-04T01:47:49.153Z,11.90
2022-10-04T01:48:48.985Z,11.91
2022-10-04T01:49:48.980Z,11.92
2022-10-04T01:50:49.118Z,11.93
2022-10-04T01:51:48.964Z,11.93
2022-10-04T01:52:48.956Z,11.93
2022-10-04T01:53:48.946Z,11.94
2022-10-04T01:54:48.928Z,11.94
2022-10-04T01:55:49.236Z,11.94
2022-10-04T01:56:48.935Z,11.94
2022-10-04T01:57:48.904Z,11.93
2022-10-04T01:58:48.894Z,11.93
2022-10-04T01:59:48.866Z,11.92
2022-10-04T02:00:48.894Z,11.91
2022-10-04T02:01:48.984Z,11.91
2022-10-04T02:02:48.834Z,11.89
2022-10-04T02:03:48.838Z,11.88
2022-10-04T02:04:48.861Z,11.87
2022-10-04T02:05:48.795Z,11.86
2022-10-04T02:06:49.167Z,11.84
2022-10-04T02:07:48.779Z,11.83
2022-10-04T02:08:48.785Z,11.82
2022-10-04T02:09:48.777Z,11.81
2022-10-04T02:10:48.746Z,11.79
2022-10-04T02:11:48.740Z,11.77
2022-10-04T02:12:49.131Z,11.75
2022-10-04T02:13:48.708Z,11.74
2022-10-04T02:14:48.703Z,11.72
2022-10-04T02:15:48.766Z,11.72
2022-10-04T02:16:48.689Z,11.71
2022-10-04T02:17:48.680Z,11.71
2022-10-04T02:18:48.905Z,11.70
2022-10-04T02:19:48.654Z,11.69
2022-10-04T02:20:48.662Z,11.68
2022-10-04T02:21:48.621Z,11.67
2022-10-04T02:22:48.623Z,11.66
2022-10-04T02:23:48.604Z,11.64
2022-10-04T02:24:48.816Z,11.63
2022-10-04T02:25:48.592Z,11.63
2022-10-04T02:26:48.574Z,11.62
2022-10-04T02:27:48.578Z,11.62
2022-10-04T02:28:48.569Z,11.62
2022-10-04T02:29:48.784Z,11.61
2022-10-04T02:30:48.520Z,11.61
2022-10-04T02:31:57.086Z,11.61
2022-10-04T02:32:48.528Z,11.60
2022-10-04T02:33:48.506Z,11.59
2022-10-04T02:34:48.491Z,11.59
2022-10-04T02:35:48.651Z,11.58
2022-10-04T02:36:48.460Z,11.58
2022-10-04T02:37:48.464Z,11.58
2022-10-04T02:38:48.436Z,11.57
2022-10-04T02:39:48.429Z,11.57
2022-10-04T02:40:48.435Z,11.57
2022-10-04T02:41:48.694Z,11.57
2022-10-04T02:42:48.407Z,11.57
2022-10-04T02:43:48.404Z,11.57
2022-10-04T02:44:48.367Z,11.57
2022-10-04T02:45:48.375Z,11.57
2022-10-04T02:46:48.396Z,11.57
2022-10-04T02:47:48.514Z,11.57
2022-10-04T02:48:48.327Z,11.57
2022-10-04T02:49:48.329Z,11.57
2022-10-04T02:50:48.305Z,11.57
2022-10-04T02:51:58.017Z,11.57
2022-10-04T02:52:48.278Z,11.57
2022-10-04T02:53:48.330Z,11.57
2022-10-04T02:54:48.257Z,11.57
2022-10-04T02:55:48.256Z,11.57
2022-10-04T02:56:48.241Z,11.57
2022-10-04T02:57:48.382Z,11.56
2022-10-04T02:58:48.217Z,11.56
2022-10-04T02:59:48.210Z,11.55
2022-10-04T03:00:48.282Z,11.54
2022-10-04T03:01:48.296Z,11.54
2022-10-04T03:02:48.310Z,11.53
2022-10-04T03:03:48.557Z,11.53
2022-10-04T03:04:48.141Z,11.53
2022-10-04T03:05:48.146Z,11.53
2022-10-04T03:06:48.129Z,11.53
2022-10-04T03:07:48.120Z,11.53
2022-10-04T03:08:48.110Z,11.52
2022-10-04T03:09:48.308Z,11.51
2022-10-04T03:10:48.082Z,11.51
2022-10-04T03:11:48.076Z,11.49
2022-10-04T03:12:48.059Z,11.47
2022-10-04T03:13:48.057Z,11.46
2022-10-04T03:14:48.049Z,11.45
2022-10-04T03:15:48.449Z,11.45
2022-10-04T03:16:48.026Z,11.44
2022-10-04T03:17:48.028Z,11.44
2022-10-04T03:18:48.016Z,11.44
2022-10-04T03:19:47.987Z,11.44
2022-10-04T03:20:47.971Z,11.45
2022-10-04T03:21:48.129Z,11.45
2022-10-04T03:22:47.958Z,11.45
2022-10-04T03:23:47.940Z,11.46
2022-10-04T03:24:47.928Z,11.46
2022-10-04T03:25:47.917Z,11.47
2022-10-04T03:26:57.634Z,11.46
2022-10-04T03:27:47.899Z,11.45
2022-10-04T03:28:47.885Z,11.44
2022-10-04T03:29:47.878Z,11.44
2022-10-04T03:30:47.865Z,11.43
2022-10-04T03:31:47.904Z,11.43
2022-10-04T03:32:48.165Z,11.43
2022-10-04T03:33:47.838Z,11.44
2022-10-04T03:34:47.831Z,11.45
2022-10-04T03:35:47.835Z,11.45
2022-10-04T03:36:47.816Z,11.46
2022-10-04T03:37:47.791Z,11.46
2022-10-04T03:38:48.090Z,11.46
2022-10-04T03:39:47.793Z,11.46
2022-10-04T03:40:47.776Z,11.45
2022-10-04T03:41:56.280Z,11.45
2022-10-04T03:43:23.315Z,11.45
2022-10-04T03:44:00.413Z,11.45
2022-10-04T03:47:10.647Z,12.54
2022-10-04T03:48:18.154Z,12.12
2022-10-04T03:49:19.364Z,11.83
2022-10-04T03:50:27.663Z,11.67
2022-10-04T03:51:18.126Z,11.57
2022-10-04T03:52:18.082Z,11.52
2022-10-04T03:53:10.569Z,11.48
2022-10-04T03:54:10.577Z,11.46
2022-10-04T03:55:10.722Z,11.45
2022-10-04T03:56:10.540Z,11.44
2022-10-04T03:57:10.527Z,11.43
2022-10-04T03:58:10.519Z,11.43
2022-10-04T03:59:10.511Z,11.42
2022-10-04T04:00:10.494Z,11.42
2022-10-04T04:01:10.756Z,11.42
2022-10-04T04:02:10.516Z,11.42
2022-10-04T04:03:10.469Z,11.42
2022-10-04T04:04:10.467Z,11.41
2022-10-04T04:05:10.458Z,11.41
2022-10-04T04:06:10.429Z,11.41
2022-10-04T04:07:10.752Z,11.41
2022-10-04T04:08:10.409Z,11.41
2022-10-04T04:09:10.413Z,11.41
2022-10-04T04:10:14.562Z,11.40
2022-10-04T04:11:11.379Z,11.40
2022-10-04T04:12:10.362Z,11.40
2022-10-04T04:13:10.601Z,11.40
2022-10-04T04:14:10.349Z,11.41
2022-10-04T04:15:10.354Z,11.40
2022-10-04T04:16:10.357Z,11.40
2022-10-04T04:17:10.311Z,11.40
2022-10-04T04:18:10.300Z,11.40
2022-10-04T04:19:10.449Z,11.40
2022-10-04T04:20:10.281Z,11.39
2022-10-04T04:21:10.355Z,11.39
2022-10-04T04:22:10.303Z,11.39
2022-10-04T04:23:10.281Z,11.39
2022-10-04T04:24:10.586Z,11.40
2022-10-04T04:25:10.233Z,11.40
2022-10-04T04:26:10.225Z,11.40
2022-10-04T04:27:10.241Z,11.40
2022-10-04T04:28:10.260Z,11.40
2022-10-04T04:29:10.202Z,11.40
2022-10-04T04:30:10.360Z,11.40
2022-10-04T04:31:10.167Z,11.40
2022-10-04T04:32:10.255Z,11.40
2022-10-04T04:33:10.172Z,11.40
2022-10-04T04:34:10.151Z,11.41
2022-10-04T04:35:10.130Z,11.41
2022-10-04T04:38:27.327Z,12.43
2022-10-04T04:39:27.062Z,12.01
2022-10-04T04:40:27.045Z,11.73
2022-10-04T04:41:27.100Z,11.56
2022-10-04T04:42:27.017Z,11.47
2022-10-04T04:43:27.051Z,11.42
2022-10-04T04:44:27.225Z,11.39
2022-10-04T04:45:27.077Z,11.37
2022-10-04T04:46:28.161Z,11.36
2022-10-04T04:47:26.968Z,11.35
2022-10-04T04:48:26.972Z,11.35
2022-10-04T04:49:26.945Z,11.35
2022-10-04T04:50:27.101Z,11.36
2022-10-04T04:51:34.459Z,11.36
2022-10-04T04:52:26.913Z,11.36
2022-10-04T04:53:26.895Z,11.36
2022-10-04T04:54:26.893Z,11.36
2022-10-04T04:55:26.875Z,11.35
2022-10-04T04:56:27.076Z,11.35
2022-10-04T04:57:26.862Z,11.35
2022-10-04T04:58:26.835Z,11.35
2022-10-04T04:59:26.824Z,11.35
2022-10-04T05:00:26.820Z,11.34
2022-10-04T05:01:26.913Z,11.33
2022-10-04T05:02:26.998Z,11.31
2022-10-04T05:03:26.792Z,11.30
2022-10-04T05:04:26.772Z,11.29
2022-10-04T05:05:26.772Z,11.28
2022-10-04T05:06:26.760Z,11.28
2022-10-04T05:07:26.746Z,11.28
2022-10-04T05:08:27.073Z,11.27
2022-10-04T05:09:26.728Z,11.27
2022-10-04T05:10:26.723Z,11.27
2022-10-04T05:11:26.705Z,11.27
2022-10-04T05:12:26.702Z,11.28
2022-10-04T05:13:26.693Z,11.28
2022-10-04T05:14:26.838Z,11.28
2022-10-04T05:15:26.672Z,11.27
2022-10-04T05:16:26.987Z,11.27
2022-10-04T05:17:26.654Z,11.27
2022-10-04T05:18:26.628Z,11.26
2022-10-04T05:19:26.634Z,11.26
2022-10-04T05:20:26.614Z,11.26
2022-10-04T05:21:26.594Z,11.26
2022-10-04T05:22:26.603Z,11.25
2022-10-04T05:23:26.582Z,11.24
2022-10-04T05:24:26.556Z,11.23
2022-10-04T05:25:26.544Z,11.22
2022-10-04T05:26:26.541Z,11.22
2022-10-04T05:27:26.555Z,11.22
2022-10-04T05:28:26.782Z,11.22
2022-10-04T05:29:26.517Z,11.22
2022-10-04T05:30:26.503Z,11.22
2022-10-04T05:31:26.558Z,11.22
2022-10-04T05:32:26.464Z,11.22
2022-10-04T05:33:28.625Z,11.21
2022-10-04T05:34:27.832Z,11.21
2022-10-04T05:35:26.450Z,11.20
2022-10-04T05:36:26.439Z,11.19
2022-10-04T05:37:26.425Z,11.19
2022-10-04T05:38:26.413Z,11.19
2022-10-04T05:39:26.402Z,11.19
2022-10-04T05:40:26.558Z,11.19
2022-10-04T05:41:29.142Z,11.18
2022-10-04T05:42:27.363Z,11.18
2022-10-04T05:43:26.359Z,11.17
2022-10-04T05:44:26.357Z,11.17
2022-10-04T05:45:26.444Z,11.17
2022-10-04T05:46:26.593Z,11.18
2022-10-04T05:47:26.316Z,11.19
2022-10-04T05:48:26.295Z,11.20
2022-10-04T05:49:26.320Z,11.22
2022-10-04T05:50:26.290Z,11.23
2022-10-04T05:51:26.264Z,11.24
2022-10-04T05:52:26.402Z,11.25
2022-10-04T05:53:26.252Z,11.26
2022-10-04T05:54:27.138Z,11.26
2022-10-04T05:55:26.244Z,11.27
2022-10-04T05:56:26.234Z,11.27
2022-10-04T05:57:26.198Z,11.27
2022-10-04T05:58:26.196Z,11.27
2022-10-04T05:59:26.175Z,11.27
2022-10-04T06:00:26.325Z,11.26
2022-10-04T06:01:26.228Z,11.26
2022-10-04T06:02:26.194Z,11.25
2022-10-04T06:03:26.141Z,11.25
2022-10-04T06:04:26.138Z,11.24
2022-10-04T06:05:29.037Z,11.24
2022-10-04T06:06:26.275Z,11.24
2022-10-04T06:07:26.101Z,11.25
2022-10-04T06:08:26.076Z,11.25
2022-10-04T06:09:26.071Z,11.26
2022-10-04T06:10:26.093Z,11.27
2022-10-04T06:11:26.062Z,11.27
2022-10-04T06:12:26.388Z,11.27
2022-10-04T06:13:26.068Z,11.27
2022-10-04T06:14:26.007Z,11.28
2022-10-04T06:15:26.020Z,11.28
2022-10-04T06:16:26.032Z,11.28
2022-10-04T06:17:25.985Z,11.28
2022-10-04T06:18:26.337Z,11.28
2022-10-04T06:19:25.964Z,11.29
2022-10-04T06:20:25.944Z,11.29
2022-10-04T06:21:25.942Z,11.29
2022-10-04T06:22:25.934Z,11.28
2022-10-04T06:23:25.933Z,11.29
2022-10-04T06:24:27.063Z,11.29
2022-10-04T06:25:25.898Z,11.29
2022-10-04T06:26:25.881Z,11.28
2022-10-04T06:27:25.873Z,11.28
2022-10-04T06:28:25.919Z,11.28
2022-10-04T06:29:25.857Z,11.28
2022-10-04T06:30:26.115Z,11.28
2022-10-04T06:31:25.826Z,11.28
2022-10-04T06:32:25.822Z,11.28
2022-10-04T06:33:25.804Z,11.28
2022-10-04T06:34:25.795Z,11.28
2022-10-04T06:35:25.792Z,11.28
2022-10-04T06:36:25.937Z,11.28
2022-10-04T06:37:25.763Z,11.28
2022-10-04T06:38:25.751Z,11.28
2022-10-04T06:39:25.742Z,11.28
2022-10-04T06:40:25.780Z,11.28
2022-10-04T06:41:25.715Z,11.28
2022-10-04T06:42:25.917Z,11.28
2022-10-04T06:43:25.697Z,11.28
2022-10-04T06:44:25.715Z,11.29
2022-10-04T06:45:25.681Z,11.29
2022-10-04T06:46:25.709Z,11.29
2022-10-04T06:47:25.654Z,11.29
2022-10-04T06:48:25.812Z,11.29
2022-10-04T06:49:25.650Z,11.29
2022-10-04T06:50:25.632Z,11.29
2022-10-04T06:51:25.634Z,11.28
2022-10-04T06:52:25.598Z,11.27
2022-10-04T06:53:25.583Z,11.26
2022-10-04T06:54:25.782Z,11.26
2022-10-04T06:55:25.574Z,11.26
2022-10-04T06:56:25.559Z,11.26
2022-10-04T06:57:25.545Z,11.26
2022-10-04T06:58:25.533Z,11.27
2022-10-04T06:59:25.531Z,11.27
2022-10-04T07:00:25.662Z,11.28
2022-10-04T07:01:25.549Z,11.29
2022-10-04T07:02:25.558Z,11.29
2022-10-04T07:03:25.496Z,11.31
2022-10-04T07:04:25.479Z,11.32
2022-10-04T07:05:25.460Z,11.33
2022-10-04T07:06:25.814Z,11.35
2022-10-04T07:07:25.459Z,11.36
2022-10-04T07:08:25.424Z,11.37
2022-10-04T07:09:25.427Z,11.39
2022-10-04T07:10:25.407Z,11.40
2022-10-04T07:11:25.412Z,11.42
2022-10-04T07:12:25.594Z,11.43
2022-10-04T07:13:25.373Z,11.43
2022-10-04T07:14:25.362Z,11.44
2022-10-04T07:15:25.359Z,11.44
2022-10-04T07:16:25.337Z,11.45
2022-10-04T07:17:25.330Z,11.46
2022-10-04T07:18:25.346Z,11.46
2022-10-04T07:19:25.319Z,11.47
2022-10-04T07:20:25.291Z,11.48
2022-10-04T07:21:25.282Z,11.49
2022-10-04T07:22:25.290Z,11.50
2022-10-04T07:23:28.556Z,11.51
2022-10-04T07:24:25.306Z,11.52
2022-10-04T07:25:25.253Z,11.54
2022-10-04T07:26:25.229Z,11.55
2022-10-04T07:27:25.220Z,11.56
2022-10-04T07:28:25.278Z,11.58
2022-10-04T07:29:25.199Z,11.59
2022-10-04T07:30:25.478Z,11.60
2022-10-04T07:31:25.284Z,11.61
2022-10-04T07:32:25.178Z,11.62
2022-10-04T07:33:25.164Z,11.63
2022-10-04T07:34:25.153Z,11.63
2022-10-04T07:35:25.143Z,11.64
2022-10-04T07:36:25.316Z,11.65
2022-10-04T07:37:25.120Z,11.65
2022-10-04T07:38:25.102Z,11.66
2022-10-04T07:39:25.115Z,11.66
2022-10-04T07:40:25.167Z,11.67
2022-10-04T07:41:25.085Z,11.67
2022-10-04T07:42:25.073Z,11.68
2022-10-04T07:43:25.051Z,11.69
2022-10-04T07:44:25.037Z,11.70
2022-10-04T07:45:29.733Z,11.71
2022-10-04T07:46:26.047Z,11.72
2022-10-04T07:47:25.022Z,11.73
2022-10-04T07:48:25.043Z,11.74
2022-10-04T07:49:32.483Z,11.75
2022-10-04T07:50:33.480Z,11.76
2022-10-04T07:51:32.472Z,11.77
2022-10-04T07:52:24.940Z,11.78
2022-10-04T07:53:33.628Z,11.79
2022-10-04T07:54:32.438Z,11.79
2022-10-04T07:55:32.422Z,11.80
2022-10-04T07:56:33.117Z,11.80
2022-10-04T07:57:32.444Z,11.80
2022-10-04T07:58:32.385Z,11.81
2022-10-04T07:59:33.583Z,11.81
2022-10-04T08:00:32.367Z,11.82
2022-10-04T08:01:24.851Z,11.83
2022-10-04T08:02:30.175Z,11.84
2022-10-04T08:03:25.843Z,11.85
2022-10-04T08:04:24.841Z,11.86
2022-10-04T08:05:24.971Z,11.87
2022-10-04T08:06:24.827Z,11.88
2022-10-04T08:07:25.016Z,11.89
2022-10-04T08:08:24.772Z,11.91
2022-10-04T08:09:24.765Z,11.92
2022-10-04T08:10:24.759Z,11.93
2022-10-04T08:11:24.747Z,11.93
2022-10-04T08:12:24.731Z,11.94
2022-10-04T08:13:24.909Z,11.93
2022-10-04T08:14:24.712Z,11.93
2022-10-04T08:15:24.715Z,11.93
2022-10-04T08:16:24.794Z,11.93
2022-10-04T08:17:24.702Z,11.93
2022-10-04T08:18:24.674Z,11.94
2022-10-04T08:19:24.824Z,11.95
2022-10-04T08:20:24.635Z,11.96
2022-10-04T08:21:24.627Z,11.97
2022-10-04T08:22:24.635Z,11.98
2022-10-04T08:23:24.611Z,11.99
2022-10-04T08:24:24.613Z,12.00
2022-10-04T08:25:24.756Z,12.00
2022-10-04T08:26:24.577Z,12.02
2022-10-04T08:27:24.572Z,12.03
2022-10-04T08:28:24.592Z,12.04
2022-10-04T08:29:24.542Z,12.05
2022-10-04T08:30:24.536Z,12.06
2022-10-04T08:31:24.837Z,12.07
2022-10-04T08:32:24.509Z,12.08
2022-10-04T08:33:24.513Z,12.08
2022-10-04T08:34:24.479Z,12.09
2022-10-04T08:35:24.473Z,12.09
2022-10-04T08:36:24.474Z,12.10
2022-10-04T08:37:24.799Z,12.11
2022-10-04T08:38:24.451Z,12.11
2022-10-04T08:39:24.443Z,12.12
2022-10-04T08:40:24.433Z,12.13
2022-10-04T08:41:24.413Z,12.14
2022-10-04T08:42:24.401Z,12.15
2022-10-04T08:43:24.588Z,12.17
2022-10-04T08:44:24.393Z,12.18
2022-10-04T08:45:24.382Z,12.19
2022-10-04T08:46:24.421Z,12.20
2022-10-04T08:47:24.341Z,12.21
2022-10-04T08:48:24.335Z,12.22
2022-10-04T08:49:24.514Z,12.23
2022-10-04T08:50:24.312Z,12.23
2022-10-04T08:51:24.307Z,12.24
2022-10-04T08:52:24.292Z,12.25
2022-10-04T08:53:24.282Z,12.26
2022-10-04T08:54:24.273Z,12.27
2022-10-04T08:55:24.412Z,12.28
2022-10-04T08:56:24.273Z,12.30
2022-10-04T08:57:24.235Z,12.31
2022-10-04T08:58:24.222Z,12.33
2022-10-04T08:59:24.227Z,12.36
2022-10-04T09:00:24.201Z,12.37
2022-10-04T09:01:24.418Z,12.39
2022-10-04T09:02:24.247Z,12.40
2022-10-04T09:03:24.982Z,12.42
2022-10-04T09:04:24.161Z,12.43
2022-10-04T09:05:24.151Z,12.45
2022-10-04T09:06:24.135Z,12.46
2022-10-04T09:07:24.306Z,12.48
2022-10-04T09:08:24.127Z,12.50
2022-10-04T09:09:24.101Z,12.52
2022-10-04T09:10:25.236Z,12.54
2022-10-04T09:11:24.084Z,12.56
2022-10-04T09:12:24.079Z,12.57
2022-10-04T09:13:24.242Z,12.60
2022-10-04T09:14:24.059Z,12.62
2022-10-04T09:15:24.031Z,12.64
2022-10-04T09:16:24.115Z,12.65
2022-10-04T09:17:24.033Z,12.67
2022-10-04T09:18:24.023Z,12.69
2022-10-04T09:19:24.163Z,12.71
2022-10-04T09:20:38.478Z,12.73
2022-10-04T09:21:24.974Z,12.75
2022-10-04T09:22:23.968Z,12.77
2022-10-04T09:23:23.956Z,12.79
2022-10-04T09:24:23.962Z,12.81
2022-10-04T09:25:24.150Z,12.83
2022-10-04T09:26:23.932Z,12.85
2022-10-04T09:27:53.199Z,12.86
2022-10-04T09:28:24.929Z,12.88
2022-10-04T09:29:23.890Z,12.90
2022-10-04T09:30:23.885Z,12.92
2022-10-04T09:31:24.160Z,12.95
2022-10-04T09:32:23.881Z,12.98
2022-10-04T09:33:23.848Z,13.01
2022-10-04T09:34:23.835Z,13.05
2022-10-04T09:35:23.821Z,13.09
2022-10-04T09:36:23.817Z,13.13
2022-10-04T09:37:23.958Z,13.17
2022-10-04T09:38:23.802Z,13.22
2022-10-04T09:39:30.481Z,13.26
2022-10-04T09:40:24.769Z,13.30
2022-10-04T09:41:23.755Z,13.33
2022-10-04T09:42:23.759Z,13.37
2022-10-04T09:43:23.731Z,13.41
2022-10-04T09:44:23.721Z,13.45
2022-10-04T09:45:23.886Z,13.49
2022-10-04T09:46:23.769Z,13.52
2022-10-04T09:47:23.691Z,13.57
2022-10-04T09:48:23.681Z,13.61
2022-10-04T09:49:23.673Z,13.66
2022-10-04T09:50:23.661Z,13.70
2022-10-04T09:51:23.830Z,13.74
2022-10-04T09:52:23.656Z,13.79
2022-10-04T09:53:23.620Z,13.83
2022-10-04T09:54:23.612Z,13.87
2022-10-04T09:55:23.782Z,13.89
2022-10-04T09:56:23.611Z,13.91
2022-10-04T09:57:23.582Z,13.92
2022-10-04T09:58:23.573Z,13.94
2022-10-04T09:59:23.565Z,13.96
2022-10-04T10:00:23.585Z,14.01
2022-10-04T10:01:23.762Z,14.05
2022-10-04T10:02:23.563Z,14.10
2022-10-04T10:03:23.592Z,14.15
2022-10-04T10:04:23.528Z,14.20
2022-10-04T10:05:23.499Z,14.26
2022-10-04T10:06:23.488Z,14.33
2022-10-04T10:07:23.820Z,14.39
2022-10-04T10:08:27.975Z,14.44
2022-10-04T10:09:23.451Z,14.50
2022-10-04T10:10:23.441Z,14.56
2022-10-04T10:11:23.420Z,14.62
2022-10-04T10:12:23.428Z,14.68
2022-10-04T10:13:23.750Z,14.73
2022-10-04T10:14:23.421Z,14.78
2022-10-04T10:15:23.401Z,14.84
2022-10-04T10:16:23.449Z,14.89
2022-10-04T10:17:23.361Z,14.93
2022-10-04T10:18:23.361Z,14.97
2022-10-04T10:19:28.063Z,15.01
2022-10-04T10:20:23.337Z,15.05
2022-10-04T10:21:23.329Z,15.09
2022-10-04T10:22:23.302Z,15.13
2022-10-04T10:23:23.290Z,15.17
2022-10-04T10:24:23.300Z,15.21
2022-10-04T10:25:23.461Z,15.26
2022-10-04T10:26:23.251Z,15.31
2022-10-04T10:27:23.260Z,15.36
2022-10-04T10:28:23.316Z,15.41
2022-10-04T10:29:23.253Z,15.45
2022-10-04T10:30:23.221Z,15.47
2022-10-04T10:31:23.431Z,15.49
2022-10-04T10:32:23.201Z,15.52
2022-10-04T10:33:23.210Z,15.54
2022-10-04T10:34:23.194Z,15.57
2022-10-04T10:35:23.162Z,15.60
2022-10-04T10:36:23.162Z,15.62
2022-10-04T10:37:23.300Z,15.63
2022-10-04T10:38:23.156Z,15.65
2022-10-04T10:39:23.121Z,15.67
2022-10-04T10:40:23.125Z,15.69
2022-10-04T10:41:23.091Z,15.72
2022-10-04T10:42:23.096Z,15.75
2022-10-04T10:43:23.324Z,15.78
2022-10-04T10:44:23.069Z,15.80
2022-10-04T10:45:23.054Z,15.82
2022-10-04T10:46:23.089Z,15.83
2022-10-04T10:47:23.032Z,15.85
2022-10-04T10:48:23.023Z,15.87
2022-10-04T10:49:23.182Z,15.89
2022-10-04T10:50:23.002Z,15.91
2022-10-04T10:51:23.014Z,15.92
2022-10-04T10:52:23.006Z,15.91
2022-10-04T10:53:22.982Z,15.91
2022-10-04T10:54:22.978Z,15.90
2022-10-04T10:55:23.142Z,15.90
2022-10-04T10:56:26.703Z,15.90
2022-10-04T10:57:23.926Z,15.92
2022-10-04T10:58:22.917Z,15.95
2022-10-04T10:59:22.920Z,15.97
2022-10-04T11:00:22.896Z,15.99
2022-10-04T11:01:23.129Z,16.01
2022-10-04T11:02:37.218Z,16.02
2022-10-04T11:03:27.202Z,16.03
2022-10-04T11:04:23.852Z,16.03
2022-10-04T11:05:22.842Z,16.02
2022-10-04T11:06:22.864Z,16.01
2022-10-04T11:07:23.011Z,16.00
2022-10-04T11:08:22.866Z,16.01
2022-10-04T11:09:22.811Z,16.01
2022-10-04T11:10:22.799Z,16.02
2022-10-04T11:11:22.791Z,16.03
2022-10-04T11:12:22.781Z,16.03
2022-10-04T11:13:22.902Z,16.03
2022-10-04T11:14:22.773Z,16.04
2022-10-04T11:15:22.788Z,16.04
2022-10-04T11:16:22.758Z,16.05
2022-10-04T11:17:22.721Z,16.06
2022-10-04T11:18:22.704Z,16.07
2022-10-04T11:19:23.092Z,16.08
2022-10-04T11:20:22.676Z,16.10
2022-10-04T11:21:22.694Z,16.11
2022-10-04T11:22:22.738Z,16.14
2022-10-04T11:23:22.660Z,16.16
2022-10-04T11:24:22.677Z,16.18
2022-10-04T11:25:22.867Z,16.20
2022-10-04T11:26:22.612Z,16.22
2022-10-04T11:27:22.591Z,16.24
2022-10-04T11:28:22.700Z,16.26
2022-10-04T11:29:22.563Z,16.27
2022-10-04T11:30:22.561Z,16.26
2022-10-04T11:31:22.830Z,16.26
2022-10-04T11:32:22.582Z,16.26
2022-10-04T11:33:22.553Z,16.26
2022-10-04T11:34:22.533Z,16.26
2022-10-04T11:35:22.510Z,16.27
2022-10-04T11:36:22.529Z,16.29
2022-10-04T11:37:22.673Z,16.29
2022-10-04T11:38:22.512Z,16.30
2022-10-04T11:39:22.525Z,16.30
2022-10-04T11:40:22.457Z,16.29
2022-10-04T11:41:22.468Z,16.29
2022-10-04T11:42:22.453Z,16.29
2022-10-04T11:43:22.594Z,16.29
2022-10-04T11:44:22.482Z,16.30
2022-10-04T11:45:22.413Z,16.32
2022-10-04T11:46:22.425Z,16.34
2022-10-04T11:47:22.393Z,16.37
2022-10-04T11:48:22.553Z,16.39
2022-10-04T11:49:22.396Z,16.42
2022-10-04T11:50:22.393Z,16.44
2022-10-04T11:51:22.354Z,16.47
2022-10-04T11:52:22.393Z,16.48
2022-10-04T11:53:22.342Z,16.49
2022-10-04T11:54:22.531Z,16.49
2022-10-04T11:55:22.293Z,16.49
2022-10-04T11:56:22.288Z,16.50
2022-10-04T11:57:22.283Z,16.51
2022-10-04T11:58:22.270Z,16.54
2022-10-04T11:59:22.253Z,16.57
2022-10-04T12:00:22.453Z,16.61
2022-10-04T12:01:22.279Z,16.65
2022-10-04T12:02:22.223Z,16.68
2022-10-04T12:03:22.247Z,16.70
2022-10-04T12:04:22.313Z,16.72
2022-10-04T12:05:22.187Z,16.73
2022-10-04T12:06:46.858Z,16.73
2022-10-04T12:07:30.941Z,16.72
2022-10-04T12:08:29.679Z,16.71
2022-10-04T12:09:29.706Z,16.71
2022-10-04T12:10:30.648Z,16.71
2022-10-04T12:11:30.367Z,16.71
2022-10-04T12:12:32.056Z,16.71
2022-10-04T12:13:40.605Z,16.71
2022-10-04T12:14:30.613Z,16.71
2022-10-04T12:15:45.122Z,16.72
2022-10-04T12:16:49.001Z,16.72
2022-10-04T12:17:30.584Z,16.73
2022-10-04T12:18:22.259Z,16.72
2022-10-04T12:19:22.030Z,16.71
2022-10-04T12:20:22.266Z,16.68
2022-10-04T12:21:22.013Z,16.66
2022-10-04T12:22:22.020Z,16.63
2022-10-04T12:23:22.010Z,16.61
2022-10-04T12:24:21.977Z,16.58
2022-10-04T12:25:21.990Z,16.57
2022-10-04T12:26:22.221Z,16.55
2022-10-04T12:27:21.942Z,16.54
2022-10-04T12:28:21.964Z,16.54
2022-10-04T12:29:21.928Z,16.55
2022-10-04T12:30:21.899Z,16.57
2022-10-04T12:31:21.946Z,16.59
2022-10-04T12:32:22.080Z,16.61
2022-10-04T12:33:21.870Z,16.63
2022-10-04T12:34:21.874Z,16.64
2022-10-04T12:35:21.855Z,16.65
2022-10-04T12:36:21.865Z,16.64
2022-10-04T12:37:21.846Z,16.63
2022-10-04T12:38:22.074Z,16.62
2022-10-04T12:39:21.833Z,16.60
2022-10-04T12:40:21.821Z,16.59
2022-10-04T12:41:21.789Z,16.59
2022-10-04T12:42:21.771Z,16.59
2022-10-04T12:43:21.786Z,16.59
2022-10-04T12:44:21.936Z,16.57
2022-10-04T12:45:21.749Z,16.56
2022-10-04T12:46:21.813Z,16.54
2022-10-04T12:47:21.729Z,16.54
2022-10-04T12:48:21.722Z,16.54
2022-10-04T12:49:21.719Z,16.56
2022-10-04T12:50:21.920Z,16.58
2022-10-04T12:51:21.672Z,16.59
2022-10-04T12:52:21.695Z,16.60
2022-10-04T12:53:21.650Z,16.61
2022-10-04T12:54:21.659Z,16.63
2022-10-04T12:55:21.650Z,16.66
2022-10-04T12:56:21.906Z,16.68
2022-10-04T12:57:21.623Z,16.70
2022-10-04T12:58:21.600Z,16.71
2022-10-04T12:59:21.611Z,16.71
2022-10-04T13:00:21.583Z,16.71